Search for airport 
image banner adimage banner adimage banner ad
image banner ad

NV55 - Pinenut

Located in Gardnerville, United States

ICAO - NV55, IATA -

Data provided by Airmate  

General information

Coordinates: N38°53'56" W119°38'58"
Elevation is 5260 feet MSL.
Magnetic variation is 16° East
View others Airports in Nevada

Operational data

Special qualification required
Current time UTC:
Current local time:
Weather at : KMEV - Minden-Tahoe ( 14 km )
METAR: KMEV 092215Z AUTO 31007KT 10SM CLR 21/M06 A2996 RMK AO2
TAF: KMEV 091720Z 0918/1018 VRB05KT P6SM SKC FM092200 32011G21KT P6SM SCT100 FM100600 35014G23KT P6SM SKC FM101400 35008KT P6SM SKC
View NOTAMs / SUP AIP / TFR affecting this airport [VIEW]
Communications frequencies: [VIEW]

Runways:

RWY identifierQFULength (ft)Width (ft)SurfaceLDA (ft)
16200045EARTH
34200045EARTH

Airport contact information

Address: Gardnerville United States

Satellite view of NV55